sensor_id;sensor_type;location;lat;lon;timestamp;temperature;humidity
10468;DHT22;5281;48.878;9.394;2023-12-22T00:01:09;8.60;99.90
10468;DHT22;5281;48.878;9.394;2023-12-22T00:03:37;8.60;99.90
10468;DHT22;5281;48.878;9.394;2023-12-22T00:06:05;8.60;99.90
10468;DHT22;5281;48.878;9.394;2023-12-22T00:08:32;8.80;99.90
10468;DHT22;5281;48.878;9.394;2023-12-22T00:10:59;8.80;99.90
10468;DHT22;5281;48.878;9.394;2023-12-22T00:13:26;8.60;99.90
10468;DHT22;5281;48.878;9.394;2023-12-22T00:15:53;8.80;99.90
10468;DHT22;5281;48.878;9.394;2023-12-22T00:18:19;8.80;99.90
10468;DHT22;5281;48.878;9.394;2023-12-22T00:20:46;9.00;99.90
10468;DHT22;5281;48.878;9.394;2023-12-22T00:23:14;9.10;99.90
10468;DHT22;5281;48.878;9.394;2023-12-22T00:25:41;9.10;99.90
10468;DHT22;5281;48.878;9.394;2023-12-22T00:28:07;9.20;99.90
10468;DHT22;5281;48.878;9.394;2023-12-22T00:30:34;9.30;99.90
10468;DHT22;5281;48.878;9.394;2023-12-22T00:33:01;9.20;99.90
10468;DHT22;5281;48.878;9.394;2023-12-22T00:35:27;9.00;99.90
10468;DHT22;5281;48.878;9.394;2023-12-22T00:37:54;8.60;99.90
10468;DHT22;5281;48.878;9.394;2023-12-22T00:40:22;8.10;99.90
10468;DHT22;5281;48.878;9.394;2023-12-22T00:42:49;7.60;99.90
10468;DHT22;5281;48.878;9.394;2023-12-22T00:45:16;7.10;99.90
10468;DHT22;5281;48.878;9.394;2023-12-22T00:47:42;6.50;99.90
10468;DHT22;5281;48.878;9.394;2023-12-22T00:50:09;6.20;99.90
10468;DHT22;5281;48.878;9.394;2023-12-22T00:52:36;6.10;99.90
10468;DHT22;5281;48.878;9.394;2023-12-22T00:55:03;6.00;99.90
10468;DHT22;5281;48.878;9.394;2023-12-22T00:57:31;5.90;99.90
10468;DHT22;5281;48.878;9.394;2023-12-22T00:59:58;5.70;99.90
10468;DHT22;5281;48.878;9.394;2023-12-22T01:02:25;5.60;99.90
10468;DHT22;5281;48.878;9.394;2023-12-22T01:04:51;5.50;99.90
10468;DHT22;5281;48.878;9.394;2023-12-22T01:07:18;5.60;99.90
10468;DHT22;5281;48.878;9.394;2023-12-22T01:09:45;5.70;99.90
10468;DHT22;5281;48.878;9.394;2023-12-22T01:12:11;5.80;99.90
10468;DHT22;5281;48.878;9.394;2023-12-22T01:14:39;6.00;99.90
10468;DHT22;5281;48.878;9.394;2023-12-22T01:17:06;5.90;99.90
10468;DHT22;5281;48.878;9.394;2023-12-22T01:19:33;5.80;99.90
10468;DHT22;5281;48.878;9.394;2023-12-22T01:21:59;5.80;99.90
10468;DHT22;5281;48.878;9.394;2023-12-22T01:24:26;5.90;99.90
10468;DHT22;5281;48.878;9.394;2023-12-22T01:26:53;6.00;99.90
10468;DHT22;5281;48.878;9.394;2023-12-22T01:29:19;6.20;99.90
10468;DHT22;5281;48.878;9.394;2023-12-22T01:31:47;6.40;99.90
10468;DHT22;5281;48.878;9.394;2023-12-22T01:34:14;6.50;99.90
10468;DHT22;5281;48.878;9.394;2023-12-22T01:36:41;6.70;99.90
10468;DHT22;5281;48.878;9.394;2023-12-22T01:39:07;6.60;99.90
10468;DHT22;5281;48.878;9.394;2023-12-22T01:41:34;6.70;99.90
10468;DHT22;5281;48.878;9.394;2023-12-22T01:44:01;6.80;99.90
10468;DHT22;5281;48.878;9.394;2023-12-22T01:46:28;7.00;99.90
10468;DHT22;5281;48.878;9.394;2023-12-22T01:48:56;7.10;99.90
10468;DHT22;5281;48.878;9.394;2023-12-22T01:51:23;7.30;99.90
10468;DHT22;5281;48.878;9.394;2023-12-22T01:53:50;7.50;99.90
10468;DHT22;5281;48.878;9.394;2023-12-22T01:56:18;7.60;99.90
10468;DHT22;5281;48.878;9.394;2023-12-22T01:58:45;7.70;99.90
10468;DHT22;5281;48.878;9.394;2023-12-22T02:01:12;7.80;99.90
10468;DHT22;5281;48.878;9.394;2023-12-22T02:03:39;7.90;99.90
10468;DHT22;5281;48.878;9.394;2023-12-22T02:06:08;8.00;99.90
10468;DHT22;5281;48.878;9.394;2023-12-22T02:08:35;8.00;99.90
10468;DHT22;5281;48.878;9.394;2023-12-22T02:11:03;7.90;99.90
10468;DHT22;5281;48.878;9.394;2023-12-22T02:13:29;7.90;99.90
10468;DHT22;5281;48.878;9.394;2023-12-22T02:16:02;7.90;99.90
10468;DHT22;5281;48.878;9.394;2023-12-22T02:18:33;8.00;99.90
10468;DHT22;5281;48.878;9.394;2023-12-22T02:21:01;8.00;99.90
10468;DHT22;5281;48.878;9.394;2023-12-22T02:23:30;8.00;99.90
10468;DHT22;5281;48.878;9.394;2023-12-22T02:26:06;8.10;99.90
10468;DHT22;5281;48.878;9.394;2023-12-22T02:28:34;8.20;99.90
10468;DHT22;5281;48.878;9.394;2023-12-22T02:31:04;8.20;99.90
10468;DHT22;5281;48.878;9.394;2023-12-22T02:33:36;8.20;99.90
10468;DHT22;5281;48.878;9.394;2023-12-22T02:36:06;8.40;99.90
10468;DHT22;5281;48.878;9.394;2023-12-22T02:38:36;8.50;99.90
10468;DHT22;5281;48.878;9.394;2023-12-22T02:41:03;8.70;99.90
10468;DHT22;5281;48.878;9.394;2023-12-22T02:43:31;8.80;99.90
10468;DHT22;5281;48.878;9.394;2023-12-22T02:45:58;8.90;99.90
10468;DHT22;5281;48.878;9.394;2023-12-22T02:48:25;8.90;99.90
10468;DHT22;5281;48.878;9.394;2023-12-22T02:50:51;9.00;99.90
10468;DHT22;5281;48.878;9.394;2023-12-22T02:53:18;9.00;99.90
10468;DHT22;5281;48.878;9.394;2023-12-22T02:55:45;9.00;99.90
10468;DHT22;5281;48.878;9.394;2023-12-22T02:58:12;9.00;99.90
10468;DHT22;5281;48.878;9.394;2023-12-22T03:00:39;9.00;99.90
10468;DHT22;5281;48.878;9.394;2023-12-22T03:03:05;9.10;99.90
10468;DHT22;5281;48.878;9.394;2023-12-22T03:05:32;9.00;99.90
10468;DHT22;5281;48.878;9.394;2023-12-22T03:07:59;9.00;99.90
10468;DHT22;5281;48.878;9.394;2023-12-22T03:10:25;9.00;99.90
10468;DHT22;5281;48.878;9.394;2023-12-22T03:12:53;9.10;99.90
10468;DHT22;5281;48.878;9.394;2023-12-22T03:15:20;9.20;99.90
10468;DHT22;5281;48.878;9.394;2023-12-22T03:17:46;9.20;99.90
10468;DHT22;5281;48.878;9.394;2023-12-22T03:20:13;9.20;99.90
10468;DHT22;5281;48.878;9.394;2023-12-22T03:22:40;9.40;99.90
10468;DHT22;5281;48.878;9.394;2023-12-22T03:25:07;9.40;99.90
10468;DHT22;5281;48.878;9.394;2023-12-22T03:27:34;9.40;99.90
10468;DHT22;5281;48.878;9.394;2023-12-22T03:30:02;9.40;99.90
10468;DHT22;5281;48.878;9.394;2023-12-22T03:32:30;9.30;99.90
10468;DHT22;5281;48.878;9.394;2023-12-22T03:34:56;9.30;99.90
10468;DHT22;5281;48.878;9.394;2023-12-22T03:37:23;9.30;99.90
10468;DHT22;5281;48.878;9.394;2023-12-22T03:39:50;9.30;99.90
10468;DHT22;5281;48.878;9.394;2023-12-22T03:42:15;9.30;99.90
10468;DHT22;5281;48.878;9.394;2023-12-22T03:44:42;9.40;99.90
10468;DHT22;5281;48.878;9.394;2023-12-22T03:47:10;9.40;99.90
10468;DHT22;5281;48.878;9.394;2023-12-22T03:49:37;9.40;99.90
10468;DHT22;5281;48.878;9.394;2023-12-22T03:52:03;9.40;99.90
10468;DHT22;5281;48.878;9.394;2023-12-22T03:54:30;9.50;99.90
10468;DHT22;5281;48.878;9.394;2023-12-22T03:56:57;9.50;99.90
10468;DHT22;5281;48.878;9.394;2023-12-22T03:59:23;9.50;99.90
10468;DHT22;5281;48.878;9.394;2023-12-22T04:01:51;9.50;99.90
10468;DHT22;5281;48.878;9.394;2023-12-22T04:04:21;9.50;99.90
10468;DHT22;5281;48.878;9.394;2023-12-22T04:06:48;9.60;99.90
10468;DHT22;5281;48.878;9.394;2023-12-22T04:09:15;9.60;99.90
10468;DHT22;5281;48.878;9.394;2023-12-22T04:11:41;9.60;99.90
10468;DHT22;5281;48.878;9.394;2023-12-22T04:14:08;9.60;99.90
10468;DHT22;5281;48.878;9.394;2023-12-22T04:16:36;9.50;99.90
10468;DHT22;5281;48.878;9.394;2023-12-22T04:19:03;9.50;99.90
10468;DHT22;5281;48.878;9.394;2023-12-22T04:21:31;9.40;99.90
10468;DHT22;5281;48.878;9.394;2023-12-22T04:23:58;9.20;99.90
10468;DHT22;5281;48.878;9.394;2023-12-22T04:26:24;9.00;99.90
10468;DHT22;5281;48.878;9.394;2023-12-22T04:28:51;8.80;99.90
10468;DHT22;5281;48.878;9.394;2023-12-22T04:31:18;8.40;99.90
10468;DHT22;5281;48.878;9.394;2023-12-22T04:33:44;8.00;99.90
10468;DHT22;5281;48.878;9.394;2023-12-22T04:36:11;7.80;99.90
10468;DHT22;5281;48.878;9.394;2023-12-22T04:38:39;7.70;99.90
10468;DHT22;5281;48.878;9.394;2023-12-22T04:41:06;7.70;99.90
10468;DHT22;5281;48.878;9.394;2023-12-22T04:43:33;7.60;99.90
10468;DHT22;5281;48.878;9.394;2023-12-22T04:45:59;7.50;99.90
10468;DHT22;5281;48.878;9.394;2023-12-22T04:48:26;7.50;99.90
10468;DHT22;5281;48.878;9.394;2023-12-22T04:50:53;7.40;99.90
10468;DHT22;5281;48.878;9.394;2023-12-22T04:53:19;7.40;99.90
10468;DHT22;5281;48.878;9.394;2023-12-22T04:55:47;7.50;99.90
10468;DHT22;5281;48.878;9.394;2023-12-22T04:58:14;7.50;99.90
10468;DHT22;5281;48.878;9.394;2023-12-22T05:00:41;7.60;99.90
10468;DHT22;5281;48.878;9.394;2023-12-22T05:03:07;7.80;99.90
10468;DHT22;5281;48.878;9.394;2023-12-22T05:05:34;7.90;99.90
10468;DHT22;5281;48.878;9.394;2023-12-22T05:08:00;8.10;99.90
10468;DHT22;5281;48.878;9.394;2023-12-22T05:10:28;8.10;99.90
10468;DHT22;5281;48.878;9.394;2023-12-22T05:12:56;8.20;99.90
10468;DHT22;5281;48.878;9.394;2023-12-22T05:15:22;8.30;99.90
10468;DHT22;5281;48.878;9.394;2023-12-22T05:17:49;8.30;99.90
10468;DHT22;5281;48.878;9.394;2023-12-22T05:20:16;8.50;99.90
10468;DHT22;5281;48.878;9.394;2023-12-22T05:22:42;8.50;99.90
10468;DHT22;5281;48.878;9.394;2023-12-22T05:25:09;8.60;99.90
10468;DHT22;5281;48.878;9.394;2023-12-22T05:27:36;8.60;99.90
10468;DHT22;5281;48.878;9.394;2023-12-22T05:30:05;8.70;99.90
10468;DHT22;5281;48.878;9.394;2023-12-22T05:32:32;8.70;99.90
10468;DHT22;5281;48.878;9.394;2023-12-22T05:34:59;8.70;99.90
10468;DHT22;5281;48.878;9.394;2023-12-22T05:37:25;8.70;99.90
10468;DHT22;5281;48.878;9.394;2023-12-22T05:39:52;8.80;99.90
10468;DHT22;5281;48.878;9.394;2023-12-22T05:42:19;8.80;99.90
10468;DHT22;5281;48.878;9.394;2023-12-22T05:44:46;8.80;99.90
10468;DHT22;5281;48.878;9.394;2023-12-22T05:47:16;8.90;99.90
10468;DHT22;5281;48.878;9.394;2023-12-22T05:49:43;9.00;99.90
10468;DHT22;5281;48.878;9.394;2023-12-22T05:52:12;9.00;99.90
10468;DHT22;5281;48.878;9.394;2023-12-22T05:54:38;9.10;99.90
10468;DHT22;5281;48.878;9.394;2023-12-22T05:57:05;9.10;99.90
10468;DHT22;5281;48.878;9.394;2023-12-22T05:59:33;9.10;99.90
10468;DHT22;5281;48.878;9.394;2023-12-22T06:02:00;9.10;99.90
10468;DHT22;5281;48.878;9.394;2023-12-22T06:04:28;9.10;99.90
10468;DHT22;5281;48.878;9.394;2023-12-22T06:06:55;9.20;99.90
10468;DHT22;5281;48.878;9.394;2023-12-22T06:09:21;9.20;99.90
10468;DHT22;5281;48.878;9.394;2023-12-22T06:11:48;9.20;99.90
10468;DHT22;5281;48.878;9.394;2023-12-22T06:14:15;9.20;99.90
10468;DHT22;5281;48.878;9.394;2023-12-22T06:16:41;9.20;99.90
10468;DHT22;5281;48.878;9.394;2023-12-22T06:19:08;9.20;99.90
10468;DHT22;5281;48.878;9.394;2023-12-22T06:21:38;9.20;99.90
10468;DHT22;5281;48.878;9.394;2023-12-22T06:24:06;9.20;99.90
10468;DHT22;5281;48.878;9.394;2023-12-22T06:26:33;9.20;99.90
10468;DHT22;5281;48.878;9.394;2023-12-22T06:29:00;9.20;99.90
10468;DHT22;5281;48.878;9.394;2023-12-22T06:31:26;9.20;99.90
10468;DHT22;5281;48.878;9.394;2023-12-22T06:33:53;9.20;99.90
10468;DHT22;5281;48.878;9.394;2023-12-22T06:36:20;9.30;99.90
10468;DHT22;5281;48.878;9.394;2023-12-22T06:38:49;9.30;99.90
10468;DHT22;5281;48.878;9.394;2023-12-22T06:41:20;9.30;99.90
10468;DHT22;5281;48.878;9.394;2023-12-22T06:43:47;9.40;99.90
10468;DHT22;5281;48.878;9.394;2023-12-22T06:46:16;9.30;99.90
10468;DHT22;5281;48.878;9.394;2023-12-22T06:48:43;9.40;99.90
10468;DHT22;5281;48.878;9.394;2023-12-22T06:51:17;9.40;99.90
10468;DHT22;5281;48.878;9.394;2023-12-22T06:53:44;9.30;99.90
10468;DHT22;5281;48.878;9.394;2023-12-22T06:56:17;9.30;99.90
10468;DHT22;5281;48.878;9.394;2023-12-22T06:58:43;9.40;99.90
10468;DHT22;5281;48.878;9.394;2023-12-22T07:01:12;9.40;99.90
10468;DHT22;5281;48.878;9.394;2023-12-22T07:03:38;9.40;99.90
10468;DHT22;5281;48.878;9.394;2023-12-22T07:06:05;9.40;99.90
10468;DHT22;5281;48.878;9.394;2023-12-22T07:08:32;9.40;99.90
10468;DHT22;5281;48.878;9.394;2023-12-22T07:10:59;9.50;99.90
10468;DHT22;5281;48.878;9.394;2023-12-22T07:13:27;9.40;99.90
10468;DHT22;5281;48.878;9.394;2023-12-22T07:15:54;9.50;99.90
10468;DHT22;5281;48.878;9.394;2023-12-22T07:18:20;9.40;99.90
10468;DHT22;5281;48.878;9.394;2023-12-22T07:20:47;9.40;99.90
10468;DHT22;5281;48.878;9.394;2023-12-22T07:23:14;9.50;99.90
10468;DHT22;5281;48.878;9.394;2023-12-22T07:25:41;9.50;99.90
10468;DHT22;5281;48.878;9.394;2023-12-22T07:28:08;9.50;99.90
10468;DHT22;5281;48.878;9.394;2023-12-22T07:30:36;9.50;99.90
10468;DHT22;5281;48.878;9.394;2023-12-22T07:33:03;9.50;99.90
10468;DHT22;5281;48.878;9.394;2023-12-22T07:35:30;9.60;99.90
10468;DHT22;5281;48.878;9.394;2023-12-22T07:37:56;9.60;99.90
10468;DHT22;5281;48.878;9.394;2023-12-22T07:40:23;9.60;99.90
10468;DHT22;5281;48.878;9.394;2023-12-22T07:42:50;9.70;99.90
10468;DHT22;5281;48.878;9.394;2023-12-22T07:45:17;9.70;99.90
10468;DHT22;5281;48.878;9.394;2023-12-22T07:47:45;9.70;99.90
10468;DHT22;5281;48.878;9.394;2023-12-22T07:50:11;9.80;99.90
10468;DHT22;5281;48.878;9.394;2023-12-22T07:52:38;9.80;99.90
10468;DHT22;5281;48.878;9.394;2023-12-22T07:55:06;9.80;99.90
10468;DHT22;5281;48.878;9.394;2023-12-22T07:57:33;9.80;99.90
10468;DHT22;5281;48.878;9.394;2023-12-22T08:00:00;9.80;99.90
10468;DHT22;5281;48.878;9.394;2023-12-22T08:02:27;9.70;99.90
10468;DHT22;5281;48.878;9.394;2023-12-22T08:04:55;9.70;99.90
10468;DHT22;5281;48.878;9.394;2023-12-22T08:07:22;9.80;99.90
10468;DHT22;5281;48.878;9.394;2023-12-22T08:09:48;9.90;99.90
10468;DHT22;5281;48.878;9.394;2023-12-22T08:12:15;9.80;99.90
10468;DHT22;5281;48.878;9.394;2023-12-22T08:14:42;9.80;99.90
10468;DHT22;5281;48.878;9.394;2023-12-22T08:17:08;9.80;99.90
10468;DHT22;5281;48.878;9.394;2023-12-22T08:19:36;9.70;99.90
10468;DHT22;5281;48.878;9.394;2023-12-22T08:22:04;9.60;99.90
10468;DHT22;5281;48.878;9.394;2023-12-22T08:24:31;9.50;99.90
10468;DHT22;5281;48.878;9.394;2023-12-22T08:26:58;9.30;99.90
10468;DHT22;5281;48.878;9.394;2023-12-22T08:29:24;9.00;99.90
10468;DHT22;5281;48.878;9.394;2023-12-22T08:31:51;8.90;99.90
10468;DHT22;5281;48.878;9.394;2023-12-22T08:34:18;8.90;99.90
10468;DHT22;5281;48.878;9.394;2023-12-22T08:36:44;9.00;99.90
10468;DHT22;5281;48.878;9.394;2023-12-22T08:39:12;9.00;99.90
10468;DHT22;5281;48.878;9.394;2023-12-22T08:41:39;9.00;99.90
10468;DHT22;5281;48.878;9.394;2023-12-22T08:44:06;9.00;99.90
10468;DHT22;5281;48.878;9.394;2023-12-22T08:46:33;9.10;99.90
10468;DHT22;5281;48.878;9.394;2023-12-22T08:49:01;9.20;99.90
10468;DHT22;5281;48.878;9.394;2023-12-22T08:51:28;9.20;99.90
10468;DHT22;5281;48.878;9.394;2023-12-22T08:53:55;9.20;99.90
10468;DHT22;5281;48.878;9.394;2023-12-22T08:56:23;9.20;99.90
10468;DHT22;5281;48.878;9.394;2023-12-22T08:58:52;9.20;99.90
10468;DHT22;5281;48.878;9.394;2023-12-22T09:01:21;9.30;99.90
10468;DHT22;5281;48.878;9.394;2023-12-22T09:03:48;9.20;99.90
10468;DHT22;5281;48.878;9.394;2023-12-22T09:06:15;9.20;99.90
10468;DHT22;5281;48.878;9.394;2023-12-22T09:08:42;9.10;99.90
10468;DHT22;5281;48.878;9.394;2023-12-22T09:11:11;9.20;99.90
10468;DHT22;5281;48.878;9.394;2023-12-22T09:13:39;9.10;99.90
10468;DHT22;5281;48.878;9.394;2023-12-22T09:16:07;9.20;99.90
10468;DHT22;5281;48.878;9.394;2023-12-22T09:18:34;9.20;99.90
10468;DHT22;5281;48.878;9.394;2023-12-22T09:21:01;9.20;99.90
10468;DHT22;5281;48.878;9.394;2023-12-22T09:23:28;9.30;99.90
10468;DHT22;5281;48.878;9.394;2023-12-22T09:25:55;9.40;99.90
10468;DHT22;5281;48.878;9.394;2023-12-22T09:28:21;9.20;99.90
10468;DHT22;5281;48.878;9.394;2023-12-22T09:30:50;9.20;99.90
10468;DHT22;5281;48.878;9.394;2023-12-22T09:33:16;9.10;99.90
10468;DHT22;5281;48.878;9.394;2023-12-22T09:35:43;9.10;99.90
10468;DHT22;5281;48.878;9.394;2023-12-22T09:38:10;9.10;99.90
10468;DHT22;5281;48.878;9.394;2023-12-22T09:40:37;9.20;99.90
10468;DHT22;5281;48.878;9.394;2023-12-22T09:43:06;9.20;99.90
10468;DHT22;5281;48.878;9.394;2023-12-22T09:45:33;9.20;99.90
10468;DHT22;5281;48.878;9.394;2023-12-22T09:48:01;9.20;99.90
10468;DHT22;5281;48.878;9.394;2023-12-22T09:50:30;9.20;99.90
10468;DHT22;5281;48.878;9.394;2023-12-22T09:52:57;9.30;99.90
10468;DHT22;5281;48.878;9.394;2023-12-22T09:55:25;9.40;99.90
10468;DHT22;5281;48.878;9.394;2023-12-22T09:57:52;9.40;99.90
10468;DHT22;5281;48.878;9.394;2023-12-22T10:00:21;9.40;99.90
10468;DHT22;5281;48.878;9.394;2023-12-22T10:02:49;9.50;99.90
10468;DHT22;5281;48.878;9.394;2023-12-22T10:05:17;9.60;99.90
10468;DHT22;5281;48.878;9.394;2023-12-22T10:07:44;9.60;99.90
10468;DHT22;5281;48.878;9.394;2023-12-22T10:10:12;9.70;99.90
10468;DHT22;5281;48.878;9.394;2023-12-22T10:12:40;9.90;99.90
10468;DHT22;5281;48.878;9.394;2023-12-22T10:15:09;9.90;99.90
10468;DHT22;5281;48.878;9.394;2023-12-22T10:17:38;10.00;99.90
10468;DHT22;5281;48.878;9.394;2023-12-22T10:20:06;10.00;99.90
10468;DHT22;5281;48.878;9.394;2023-12-22T10:22:35;10.10;99.90
10468;DHT22;5281;48.878;9.394;2023-12-22T10:25:01;10.30;99.90
10468;DHT22;5281;48.878;9.394;2023-12-22T10:27:29;10.30;99.90
10468;DHT22;5281;48.878;9.394;2023-12-22T10:29:55;10.40;99.90
10468;DHT22;5281;48.878;9.394;2023-12-22T10:32:23;10.50;99.90
10468;DHT22;5281;48.878;9.394;2023-12-22T10:34:51;10.50;99.90
10468;DHT22;5281;48.878;9.394;2023-12-22T10:37:18;10.50;99.90
10468;DHT22;5281;48.878;9.394;2023-12-22T10:39:51;10.50;99.90
10468;DHT22;5281;48.878;9.394;2023-12-22T10:42:18;10.50;99.90
10468;DHT22;5281;48.878;9.394;2023-12-22T10:44:45;10.50;99.90
10468;DHT22;5281;48.878;9.394;2023-12-22T10:47:13;10.50;99.90
10468;DHT22;5281;48.878;9.394;2023-12-22T10:49:40;10.50;99.90
10468;DHT22;5281;48.878;9.394;2023-12-22T10:52:10;10.40;99.90
10468;DHT22;5281;48.878;9.394;2023-12-22T10:54:41;10.40;99.90
10468;DHT22;5281;48.878;9.394;2023-12-22T10:57:10;10.40;99.90
10468;DHT22;5281;48.878;9.394;2023-12-22T10:59:40;10.40;99.90
10468;DHT22;5281;48.878;9.394;2023-12-22T11:02:11;10.40;99.90
10468;DHT22;5281;48.878;9.394;2023-12-22T11:04:42;10.50;99.90
10468;DHT22;5281;48.878;9.394;2023-12-22T11:07:14;10.40;99.90
10468;DHT22;5281;48.878;9.394;2023-12-22T11:09:42;10.40;99.90
10468;DHT22;5281;48.878;9.394;2023-12-22T11:12:12;10.30;99.90
10468;DHT22;5281;48.878;9.394;2023-12-22T11:14:40;10.40;99.90
10468;DHT22;5281;48.878;9.394;2023-12-22T11:17:07;10.40;99.90
10468;DHT22;5281;48.878;9.394;2023-12-22T11:19:35;10.50;99.90
10468;DHT22;5281;48.878;9.394;2023-12-22T11:22:04;10.50;99.90
10468;DHT22;5281;48.878;9.394;2023-12-22T11:24:33;10.50;99.90
10468;DHT22;5281;48.878;9.394;2023-12-22T11:27:01;10.50;99.90
10468;DHT22;5281;48.878;9.394;2023-12-22T11:29:30;10.50;99.90
10468;DHT22;5281;48.878;9.394;2023-12-22T11:31:59;10.40;99.90
10468;DHT22;5281;48.878;9.394;2023-12-22T11:34:28;10.40;99.90
10468;DHT22;5281;48.878;9.394;2023-12-22T11:36:57;10.40;99.90
10468;DHT22;5281;48.878;9.394;2023-12-22T11:39:25;10.40;99.90
10468;DHT22;5281;48.878;9.394;2023-12-22T11:41:52;10.50;99.90
10468;DHT22;5281;48.878;9.394;2023-12-22T11:44:20;10.60;99.90
10468;DHT22;5281;48.878;9.394;2023-12-22T11:46:48;10.50;99.90
10468;DHT22;5281;48.878;9.394;2023-12-22T11:49:15;10.50;99.90
10468;DHT22;5281;48.878;9.394;2023-12-22T11:51:41;10.50;99.90
10468;DHT22;5281;48.878;9.394;2023-12-22T11:57:29;10.50;99.90
10468;DHT22;5281;48.878;9.394;2023-12-22T11:59:56;10.50;99.90
10468;DHT22;5281;48.878;9.394;2023-12-22T12:02:26;10.50;99.90
10468;DHT22;5281;48.878;9.394;2023-12-22T12:04:53;10.50;99.90
10468;DHT22;5281;48.878;9.394;2023-12-22T12:07:40;10.50;99.90
10468;DHT22;5281;48.878;9.394;2023-12-22T12:10:07;10.50;99.90
10468;DHT22;5281;48.878;9.394;2023-12-22T12:12:34;10.40;99.90
10468;DHT22;5281;48.878;9.394;2023-12-22T12:15:07;10.40;99.90
10468;DHT22;5281;48.878;9.394;2023-12-22T12:17:40;10.30;99.90
10468;DHT22;5281;48.878;9.394;2023-12-22T12:20:08;10.30;99.90
10468;DHT22;5281;48.878;9.394;2023-12-22T12:22:36;10.30;99.90
10468;DHT22;5281;48.878;9.394;2023-12-22T12:25:07;10.40;99.90
10468;DHT22;5281;48.878;9.394;2023-12-22T12:27:35;10.40;99.90
10468;DHT22;5281;48.878;9.394;2023-12-22T12:30:07;10.40;99.90
10468;DHT22;5281;48.878;9.394;2023-12-22T12:32:35;10.50;99.90
10468;DHT22;5281;48.878;9.394;2023-12-22T12:35:04;10.50;99.90
10468;DHT22;5281;48.878;9.394;2023-12-22T12:37:31;10.50;99.90
10468;DHT22;5281;48.878;9.394;2023-12-22T12:39:59;10.40;99.90
10468;DHT22;5281;48.878;9.394;2023-12-22T12:42:29;10.50;99.90
10468;DHT22;5281;48.878;9.394;2023-12-22T12:44:56;10.50;99.90
10468;DHT22;5281;48.878;9.394;2023-12-22T12:47:23;10.60;99.90
10468;DHT22;5281;48.878;9.394;2023-12-22T12:49:56;10.60;99.90
10468;DHT22;5281;48.878;9.394;2023-12-22T12:52:25;10.50;99.90
10468;DHT22;5281;48.878;9.394;2023-12-22T12:54:51;10.50;99.90
10468;DHT22;5281;48.878;9.394;2023-12-22T12:57:19;10.50;99.90
10468;DHT22;5281;48.878;9.394;2023-12-22T12:59:46;10.40;99.90
10468;DHT22;5281;48.878;9.394;2023-12-22T13:02:14;10.40;99.90
10468;DHT22;5281;48.878;9.394;2023-12-22T13:04:41;10.50;99.90
10468;DHT22;5281;48.878;9.394;2023-12-22T13:07:09;10.60;99.90
10468;DHT22;5281;48.878;9.394;2023-12-22T13:09:39;10.60;99.90
10468;DHT22;5281;48.878;9.394;2023-12-22T13:12:07;10.50;99.90
10468;DHT22;5281;48.878;9.394;2023-12-22T13:14:34;10.60;99.90
10468;DHT22;5281;48.878;9.394;2023-12-22T13:17:01;10.60;99.90
10468;DHT22;5281;48.878;9.394;2023-12-22T13:19:28;10.50;99.90
10468;DHT22;5281;48.878;9.394;2023-12-22T13:21:55;10.50;99.90
10468;DHT22;5281;48.878;9.394;2023-12-22T13:24:22;10.60;99.90
10468;DHT22;5281;48.878;9.394;2023-12-22T13:27:00;10.60;99.90
10468;DHT22;5281;48.878;9.394;2023-12-22T13:29:27;10.70;99.90
10468;DHT22;5281;48.878;9.394;2023-12-22T13:31:55;10.70;99.90
10468;DHT22;5281;48.878;9.394;2023-12-22T13:34:23;10.80;99.90
10468;DHT22;5281;48.878;9.394;2023-12-22T13:36:50;10.80;99.90
10468;DHT22;5281;48.878;9.394;2023-12-22T13:39:17;10.80;99.90
10468;DHT22;5281;48.878;9.394;2023-12-22T13:41:44;10.80;99.90
10468;DHT22;5281;48.878;9.394;2023-12-22T13:44:13;10.80;99.90
10468;DHT22;5281;48.878;9.394;2023-12-22T13:46:40;10.80;99.90
10468;DHT22;5281;48.878;9.394;2023-12-22T13:49:08;11.00;99.90
10468;DHT22;5281;48.878;9.394;2023-12-22T13:51:39;11.00;99.90
10468;DHT22;5281;48.878;9.394;2023-12-22T13:54:07;11.00;99.90
10468;DHT22;5281;48.878;9.394;2023-12-22T13:56:34;11.10;99.90
10468;DHT22;5281;48.878;9.394;2023-12-22T13:59:02;11.10;99.90
10468;DHT22;5281;48.878;9.394;2023-12-22T14:01:30;11.10;99.90
10468;DHT22;5281;48.878;9.394;2023-12-22T14:03:58;11.00;99.90
10468;DHT22;5281;48.878;9.394;2023-12-22T14:06:25;11.00;99.90
10468;DHT22;5281;48.878;9.394;2023-12-22T14:08:52;11.00;99.90
10468;DHT22;5281;48.878;9.394;2023-12-22T14:11:18;11.00;99.90
10468;DHT22;5281;48.878;9.394;2023-12-22T14:13:45;11.00;99.90
10468;DHT22;5281;48.878;9.394;2023-12-22T14:16:12;11.10;99.90
10468;DHT22;5281;48.878;9.394;2023-12-22T14:18:40;11.10;99.90
10468;DHT22;5281;48.878;9.394;2023-12-22T14:21:07;11.10;99.90
10468;DHT22;5281;48.878;9.394;2023-12-22T14:23:33;11.10;99.90
10468;DHT22;5281;48.878;9.394;2023-12-22T14:26:00;11.10;99.90
10468;DHT22;5281;48.878;9.394;2023-12-22T14:28:27;11.00;99.90
10468;DHT22;5281;48.878;9.394;2023-12-22T14:30:54;10.90;99.90
10468;DHT22;5281;48.878;9.394;2023-12-22T14:33:20;10.80;99.90
10468;DHT22;5281;48.878;9.394;2023-12-22T14:35:48;10.80;99.90
10468;DHT22;5281;48.878;9.394;2023-12-22T14:38:15;10.80;99.90
10468;DHT22;5281;48.878;9.394;2023-12-22T14:40:42;11.00;99.90
10468;DHT22;5281;48.878;9.394;2023-12-22T14:43:08;11.00;99.90
10468;DHT22;5281;48.878;9.394;2023-12-22T14:45:35;11.10;99.90
10468;DHT22;5281;48.878;9.394;2023-12-22T14:48:03;11.10;99.90
10468;DHT22;5281;48.878;9.394;2023-12-22T14:50:29;11.10;99.90
10468;DHT22;5281;48.878;9.394;2023-12-22T14:52:58;11.20;99.90
10468;DHT22;5281;48.878;9.394;2023-12-22T14:55:24;11.20;99.90
10468;DHT22;5281;48.878;9.394;2023-12-22T14:57:51;11.20;99.90
10468;DHT22;5281;48.878;9.394;2023-12-22T15:00:18;11.20;99.90
10468;DHT22;5281;48.878;9.394;2023-12-22T15:02:45;11.30;99.90
10468;DHT22;5281;48.878;9.394;2023-12-22T15:05:12;11.20;99.90
10468;DHT22;5281;48.878;9.394;2023-12-22T15:07:38;11.20;99.90
10468;DHT22;5281;48.878;9.394;2023-12-22T15:10:07;11.20;99.90
10468;DHT22;5281;48.878;9.394;2023-12-22T15:12:34;11.20;99.90
10468;DHT22;5281;48.878;9.394;2023-12-22T15:15:03;11.30;99.90
10468;DHT22;5281;48.878;9.394;2023-12-22T15:17:30;11.30;99.90
10468;DHT22;5281;48.878;9.394;2023-12-22T15:19:57;11.30;99.90
10468;DHT22;5281;48.878;9.394;2023-12-22T15:22:24;11.30;99.90
10468;DHT22;5281;48.878;9.394;2023-12-22T15:24:50;11.20;99.90
10468;DHT22;5281;48.878;9.394;2023-12-22T15:27:18;11.30;99.90
10468;DHT22;5281;48.878;9.394;2023-12-22T15:29:45;11.30;99.90
10468;DHT22;5281;48.878;9.394;2023-12-22T15:32:13;11.20;99.90
10468;DHT22;5281;48.878;9.394;2023-12-22T15:34:41;11.20;99.90
10468;DHT22;5281;48.878;9.394;2023-12-22T15:37:07;11.20;99.90
10468;DHT22;5281;48.878;9.394;2023-12-22T15:39:34;11.20;99.90
10468;DHT22;5281;48.878;9.394;2023-12-22T15:42:01;11.20;99.90
10468;DHT22;5281;48.878;9.394;2023-12-22T15:44:29;11.20;99.90
10468;DHT22;5281;48.878;9.394;2023-12-22T15:46:56;11.20;99.90
10468;DHT22;5281;48.878;9.394;2023-12-22T15:49:22;11.20;99.90
10468;DHT22;5281;48.878;9.394;2023-12-22T15:51:49;11.20;99.90
10468;DHT22;5281;48.878;9.394;2023-12-22T15:54:18;11.20;99.90
10468;DHT22;5281;48.878;9.394;2023-12-22T15:56:46;11.20;99.90
10468;DHT22;5281;48.878;9.394;2023-12-22T15:59:12;11.30;99.90
10468;DHT22;5281;48.878;9.394;2023-12-22T16:01:43;11.30;99.90